createdAt,value
2023-03-29T00:15:16.029Z,1014.9
2023-03-29T00:30:49.977Z,1014.8
2023-03-29T00:46:24.233Z,1014.6
2023-03-29T01:01:58.763Z,1014.6
2023-03-29T01:17:32.894Z,1014.2
2023-03-29T01:33:07.255Z,1013.8
2023-03-29T01:48:41.213Z,1013.6
2023-03-29T02:04:15.150Z,1013.4
2023-03-29T02:19:49.116Z,1013.2
2023-03-29T02:35:23.232Z,1013.2
2023-03-29T02:50:57.454Z,1013
2023-03-29T03:06:31.394Z,1012.9
2023-03-29T03:22:05.348Z,1012.8
2023-03-29T03:37:39.284Z,1012.6
2023-03-29T03:53:13.232Z,1012.5
2023-03-29T04:08:47.283Z,1012.5
2023-03-29T04:24:21.217Z,1012.4
2023-03-29T04:39:55.216Z,1012.5
2023-03-29T04:55:29.201Z,1012.3
2023-03-29T05:11:03.242Z,1012.2
2023-03-29T05:26:37.295Z,1012
2023-03-29T05:42:11.239Z,1011.9
2023-03-29T05:57:45.164Z,1011.9
2023-03-29T06:13:19.119Z,1012
2023-03-29T06:28:53.100Z,1011.8
2023-03-29T06:44:27.145Z,1011.8
2023-03-29T07:00:01.293Z,1011.7
2023-03-29T07:15:35.546Z,1011.8
2023-03-29T07:31:09.848Z,1011.8
2023-03-29T07:46:43.989Z,1011.7
2023-03-29T08:02:18.070Z,1011.4
2023-03-29T08:17:52.588Z,1011.3
2023-03-29T08:33:26.770Z,1011.1
2023-03-29T08:49:00.782Z,1010.9
2023-03-29T09:04:35.054Z,1010.7
2023-03-29T09:20:09.100Z,1010.9
2023-03-29T09:35:43.208Z,1010.6
2023-03-29T09:51:17.493Z,1010.5
2023-03-29T10:06:51.636Z,1010.3
2023-03-29T10:22:25.860Z,1010.2
2023-03-29T10:37:59.916Z,1010.1
2023-03-29T10:53:34.019Z,1009.8
2023-03-29T11:09:08.164Z,1009.7
2023-03-29T11:24:42.258Z,1009.8
2023-03-29T11:40:16.336Z,1009.6
2023-03-29T11:55:50.483Z,1009.3
2023-03-29T12:11:24.588Z,1009.1
2023-03-29T12:26:58.754Z,1008.9
2023-03-29T12:42:32.899Z,1008.7
2023-03-29T12:58:07.038Z,1008.6
2023-03-29T13:13:41.215Z,1008.6
2023-03-29T13:29:15.427Z,1008.6
2023-03-29T13:44:49.551Z,1009
2023-03-29T14:00:23.675Z,1009
2023-03-29T14:15:58.065Z,1008.8
2023-03-29T14:31:32.401Z,1008.6
2023-03-29T14:47:06.721Z,1008.5
2023-03-29T15:02:41.167Z,1008.7
2023-03-29T15:18:15.981Z,1008.5
2023-03-29T15:33:50.347Z,1008.2
2023-03-29T15:49:24.462Z,1008.2
2023-03-29T16:04:58.829Z,1008.1
2023-03-29T16:20:32.927Z,1008.1
2023-03-29T16:36:07.179Z,1008.1
2023-03-29T16:51:41.420Z,1008
2023-03-29T17:07:15.693Z,1007.9
2023-03-29T17:22:49.815Z,1007.9
2023-03-29T17:38:23.967Z,1007.9
2023-03-29T17:53:58.023Z,1008
2023-03-29T18:09:32.131Z,1008
2023-03-29T18:25:06.286Z,1008
2023-03-29T18:40:40.366Z,1008
2023-03-29T18:56:14.485Z,1007.9
2023-03-29T19:11:48.747Z,1007.8
2023-03-29T19:27:23.266Z,1007.7
2023-03-29T19:42:57.323Z,1007.6
2023-03-29T19:58:31.347Z,1007.4
2023-03-29T20:14:05.416Z,1007.3
2023-03-29T20:29:39.477Z,1007.1
2023-03-29T20:45:13.600Z,1006.8
2023-03-29T21:01:02.834Z,1006.7
2023-03-29T21:16:37.111Z,1006.6
2023-03-29T21:32:11.178Z,1006.6
2023-03-29T21:47:45.529Z,1006.3
2023-03-29T22:03:19.642Z,1006.2
2023-03-29T22:18:53.775Z,1006
2023-03-29T22:34:27.870Z,1005.7
2023-03-29T22:50:02.236Z,1005.7
2023-03-29T23:05:36.290Z,1005.5
2023-03-29T23:21:10.523Z,1005.2
2023-03-29T23:36:44.661Z,1005.1
2023-03-29T23:52:18.714Z,1004.8
